createdAt,value
2022-08-29T00:00:23.072Z,17.37
2022-08-29T00:02:52.481Z,15.20
2022-08-29T00:05:24.980Z,17.20
2022-08-29T00:07:52.078Z,13.47
2022-08-29T00:10:18.903Z,15.83
2022-08-29T00:12:45.439Z,16.30
2022-08-29T00:15:12.992Z,13.33
2022-08-29T00:17:39.527Z,16.50
2022-08-29T00:20:08.048Z,13.63
2022-08-29T00:22:34.682Z,16.90
2022-08-29T00:25:04.698Z,16.10
2022-08-29T00:27:33.074Z,15.50
2022-08-29T00:29:59.653Z,16.90
2022-08-29T00:32:26.209Z,16.63
2022-08-29T00:34:52.849Z,18.33
2022-08-29T00:37:19.904Z,15.90
2022-08-29T00:39:46.411Z,19.47
2022-08-29T00:42:13.309Z,17.77
2022-08-29T00:44:39.858Z,17.80
2022-08-29T00:47:09.751Z,17.73
2022-08-29T00:49:42.167Z,15.43
2022-08-29T00:52:14.573Z,19.37
2022-08-29T00:54:43.902Z,15.87
2022-08-29T00:57:10.831Z,22.60
2022-08-29T00:59:39.169Z,15.67
2022-08-29T01:02:07.357Z,18.17
2022-08-29T01:04:34.728Z,18.23
2022-08-29T01:07:01.316Z,23.00
2022-08-29T01:09:28.261Z,18.80
2022-08-29T01:12:14.953Z,25.40
2022-08-29T01:14:48.034Z,22.17
2022-08-29T01:17:21.583Z,21.60
2022-08-29T01:20:07.301Z,17.90
2022-08-29T01:23:01.070Z,21.77
2022-08-29T01:25:31.410Z,20.20
2022-08-29T01:28:13.801Z,21.50
2022-08-29T01:31:06.778Z,23.83
2022-08-29T01:33:56.874Z,21.70
2022-08-29T01:36:27.383Z,22.57
2022-08-29T01:38:54.541Z,20.13
2022-08-29T01:41:22.790Z,25.30
2022-08-29T01:43:52.292Z,25.97
2022-08-29T01:46:25.622Z,30.53
2022-08-29T01:48:52.507Z,27.00
2022-08-29T01:51:19.839Z,30.70
2022-08-29T01:53:46.534Z,28.70
2022-08-29T01:56:18.571Z,31.27
2022-08-29T01:58:46.298Z,36.07
2022-08-29T02:01:15.229Z,36.20
2022-08-29T02:03:42.061Z,46.23
2022-08-29T02:06:11.741Z,39.03
2022-08-29T02:08:39.634Z,46.60
2022-08-29T02:11:11.456Z,40.37
2022-08-29T02:13:59.609Z,46.73
2022-08-29T02:16:27.747Z,43.13
2022-08-29T02:18:54.869Z,39.43
2022-08-29T02:21:23.428Z,43.53
2022-08-29T02:23:50.693Z,40.83
2022-08-29T02:26:18.688Z,48.83
2022-08-29T02:28:46.242Z,44.70
2022-08-29T02:31:13.322Z,46.27
2022-08-29T02:33:40.369Z,48.20
2022-08-29T02:36:07.769Z,46.00
2022-08-29T02:38:34.994Z,43.37
2022-08-29T02:41:01.796Z,48.27
2022-08-29T02:43:28.403Z,52.33
2022-08-29T02:45:55.042Z,49.70
2022-08-29T02:48:21.576Z,49.77
2022-08-29T02:50:50.431Z,49.47
2022-08-29T02:53:18.940Z,60.27
2022-08-29T02:55:47.355Z,55.37
2022-08-29T02:58:14.525Z,58.73
2022-08-29T03:00:42.374Z,60.77
2022-08-29T03:03:08.997Z,69.23
2022-08-29T03:05:37.211Z,61.97
2022-08-29T03:08:07.131Z,62.10
2022-08-29T03:10:34.413Z,68.83
2022-08-29T03:13:01.340Z,68.40
2022-08-29T03:15:27.884Z,66.10
2022-08-29T03:17:54.746Z,65.60
2022-08-29T03:20:24.028Z,68.93
2022-08-29T03:22:51.903Z,65.60
2022-08-29T03:25:18.433Z,74.73
2022-08-29T03:27:45.071Z,76.23
2022-08-29T03:30:13.685Z,74.03
2022-08-29T03:32:40.598Z,66.13
2022-08-29T03:35:09.437Z,68.37
2022-08-29T03:37:35.931Z,62.60
2022-08-29T03:40:05.290Z,62.90
2022-08-29T03:42:31.963Z,56.97
2022-08-29T03:44:58.594Z,61.47
2022-08-29T03:47:25.133Z,55.57
2022-08-29T03:49:51.630Z,50.77
2022-08-29T03:52:18.107Z,48.30
2022-08-29T03:54:44.548Z,51.00
2022-08-29T03:57:12.108Z,49.87
2022-08-29T03:59:38.605Z,46.17
2022-08-29T04:02:05.378Z,44.83
2022-08-29T04:04:50.299Z,40.77
2022-08-29T04:07:17.667Z,42.23
2022-08-29T04:09:44.332Z,43.67
2022-08-29T04:12:12.349Z,40.30
2022-08-29T04:14:39.593Z,40.33
2022-08-29T04:17:06.827Z,38.47
2022-08-29T04:19:35.213Z,37.50
2022-08-29T04:22:02.495Z,39.73
2022-08-29T04:24:33.598Z,35.93
2022-08-29T04:27:00.461Z,40.57
2022-08-29T04:29:27.626Z,33.63
2022-08-29T04:31:54.196Z,35.73
2022-08-29T04:34:21.368Z,43.13
2022-08-29T04:36:48.254Z,33.37
2022-08-29T04:39:15.213Z,35.53
2022-08-29T04:41:42.221Z,31.70
2022-08-29T04:44:11.175Z,29.73
2022-08-29T04:46:38.361Z,27.13
2022-08-29T04:49:05.317Z,27.17
2022-08-29T04:51:34.224Z,22.00
2022-08-29T04:54:00.916Z,21.70
2022-08-29T04:56:27.637Z,22.53
2022-08-29T04:58:57.088Z,14.63
2022-08-29T05:01:26.101Z,18.20
2022-08-29T05:03:54.505Z,12.13
2022-08-29T05:06:22.893Z,10.97
2022-08-29T05:08:58.794Z,11.30
2022-08-29T05:11:28.814Z,10.27
2022-08-29T05:13:55.578Z,10.20
2022-08-29T05:16:22.214Z,9.17
2022-08-29T05:18:49.260Z,9.93
2022-08-29T05:21:35.589Z,7.90
2022-08-29T05:24:07.550Z,9.87
2022-08-29T05:26:37.785Z,6.80
2022-08-29T05:29:08.718Z,6.57
2022-08-29T05:31:37.474Z,6.90
2022-08-29T05:34:21.887Z,7.83
2022-08-29T05:36:51.977Z,6.27
2022-08-29T05:39:18.507Z,7.93
2022-08-29T05:41:44.996Z,12.50
2022-08-29T05:44:11.561Z,10.60
2022-08-29T05:46:38.187Z,10.40
2022-08-29T05:49:05.855Z,9.93
2022-08-29T05:51:37.296Z,10.63
2022-08-29T05:54:06.016Z,9.17
2022-08-29T05:56:32.818Z,7.47
2022-08-29T05:58:59.519Z,12.90
2022-08-29T06:01:29.386Z,11.03
2022-08-29T06:04:00.151Z,9.93
2022-08-29T06:06:28.787Z,9.40
2022-08-29T06:08:56.958Z,10.83
2022-08-29T06:11:29.655Z,10.43
2022-08-29T06:13:57.259Z,11.20
2022-08-29T06:16:25.234Z,11.43
2022-08-29T06:18:52.237Z,11.63
2022-08-29T06:21:19.739Z,11.07
2022-08-29T06:23:46.785Z,11.43
2022-08-29T06:26:14.170Z,10.70
2022-08-29T06:28:45.842Z,12.87
2022-08-29T06:31:29.436Z,10.53
2022-08-29T06:34:01.065Z,18.70
2022-08-29T06:36:28.808Z,12.27
2022-08-29T06:38:57.772Z,16.00
2022-08-29T06:41:25.470Z,11.33
2022-08-29T06:43:52.203Z,12.50
2022-08-29T06:46:22.636Z,13.87
2022-08-29T06:48:50.117Z,12.70
2022-08-29T06:51:16.990Z,15.57
2022-08-29T06:53:43.665Z,13.73
2022-08-29T06:56:11.152Z,14.83
2022-08-29T06:58:38.249Z,16.13
2022-08-29T07:01:09.678Z,16.20
2022-08-29T07:03:36.204Z,18.60
2022-08-29T07:06:03.320Z,18.50
2022-08-29T07:08:30.236Z,16.07
2022-08-29T07:10:57.657Z,16.23
2022-08-29T07:13:24.641Z,17.93
2022-08-29T07:15:52.376Z,21.87
2022-08-29T07:18:19.028Z,18.40
2022-08-29T07:20:45.696Z,16.47
2022-08-29T07:23:12.474Z,15.83
2022-08-29T07:25:39.168Z,15.47
2022-08-29T07:28:06.560Z,11.67
2022-08-29T07:30:34.864Z,14.13
2022-08-29T07:33:01.653Z,12.40
2022-08-29T07:35:31.229Z,11.67
2022-08-29T07:38:01.455Z,12.37
2022-08-29T07:40:28.670Z,12.73
2022-08-29T07:42:55.699Z,15.10
2022-08-29T07:45:22.317Z,16.00
2022-08-29T07:47:48.916Z,12.03
2022-08-29T07:50:15.632Z,14.20
2022-08-29T07:52:42.357Z,13.73
2022-08-29T07:55:10.244Z,13.70
2022-08-29T07:57:39.759Z,13.77
2022-08-29T08:00:10.734Z,12.07
2022-08-29T08:02:37.532Z,15.47
2022-08-29T08:05:06.828Z,10.77
2022-08-29T08:07:35.228Z,15.40
2022-08-29T08:10:03.158Z,15.50
2022-08-29T08:12:29.949Z,12.77
2022-08-29T08:14:57.751Z,11.23
2022-08-29T08:17:24.732Z,13.07
2022-08-29T08:19:51.252Z,16.20
2022-08-29T08:22:17.781Z,11.73
2022-08-29T08:24:45.157Z,15.43
2022-08-29T08:27:11.908Z,12.87
2022-08-29T08:29:38.620Z,12.23
2022-08-29T08:32:05.705Z,13.37
2022-08-29T08:34:35.871Z,14.63
2022-08-29T08:37:08.265Z,15.97
2022-08-29T08:39:35.675Z,11.93
2022-08-29T08:42:07.117Z,17.10
2022-08-29T08:44:54.001Z,15.70
2022-08-29T08:47:26.353Z,16.30
2022-08-29T08:50:21.642Z,14.07
2022-08-29T08:53:05.494Z,17.87
2022-08-29T08:55:40.052Z,15.93
2022-08-29T08:58:16.189Z,12.77
2022-08-29T09:00:50.729Z,16.53
2022-08-29T09:03:40.126Z,19.13
2022-08-29T09:06:16.025Z,14.50
2022-08-29T09:08:51.324Z,20.87
2022-08-29T09:11:33.702Z,17.07
2022-08-29T09:14:06.355Z,13.43
2022-08-29T09:16:41.077Z,14.10
2022-08-29T09:19:11.339Z,14.03
2022-08-29T09:21:47.055Z,12.27
2022-08-29T09:24:21.687Z,7.83
2022-08-29T09:26:48.515Z,12.67
2022-08-29T09:29:17.302Z,9.57
2022-08-29T09:31:44.064Z,8.17
2022-08-29T09:34:13.039Z,11.07
2022-08-29T09:36:52.413Z,10.73
2022-08-29T09:39:25.949Z,9.03
2022-08-29T09:42:12.815Z,10.73
2022-08-29T09:44:41.063Z,8.33
2022-08-29T09:47:12.972Z,8.47
2022-08-29T09:49:42.422Z,8.40
2022-08-29T09:52:24.808Z,13.17
2022-08-29T09:54:51.419Z,10.07
2022-08-29T09:57:29.234Z,9.40
2022-08-29T10:00:13.677Z,14.90
2022-08-29T10:02:43.782Z,8.13
2022-08-29T10:05:30.632Z,11.50
2022-08-29T10:07:59.062Z,6.40
2022-08-29T10:10:28.700Z,7.90
2022-08-29T10:13:01.053Z,13.20
2022-08-29T10:15:49.900Z,9.23
2022-08-29T10:18:24.667Z,7.13
2022-08-29T10:21:25.114Z,7.33
2022-08-29T10:23:59.991Z,11.47
2022-08-29T10:26:39.845Z,13.00
2022-08-29T10:29:29.622Z,5.63
2022-08-29T10:32:36.925Z,10.27
2022-08-29T10:35:39.340Z,13.17
2022-08-29T10:38:23.657Z,9.10
2022-08-29T10:41:20.624Z,8.83
2022-08-29T10:44:05.711Z,7.43
2022-08-29T10:46:47.972Z,4.93
2022-08-29T10:49:32.576Z,9.00
2022-08-29T10:52:15.308Z,6.13
2022-08-29T10:55:00.319Z,5.00
2022-08-29T10:57:55.428Z,6.23
2022-08-29T11:00:25.053Z,7.43
2022-08-29T11:03:11.799Z,8.90
2022-08-29T11:05:47.021Z,7.40
2022-08-29T11:08:21.094Z,6.57
2022-08-29T11:10:50.631Z,5.67
2022-08-29T11:13:36.896Z,8.27
2022-08-29T11:16:17.025Z,7.57
2022-08-29T11:18:51.709Z,7.63
2022-08-29T11:21:27.771Z,7.63
2022-08-29T11:23:58.997Z,4.90
2022-08-29T11:26:44.776Z,7.67
2022-08-29T11:29:33.132Z,6.07
2022-08-29T11:32:12.982Z,9.33
2022-08-29T11:35:07.638Z,5.40
2022-08-29T11:37:59.504Z,6.47
2022-08-29T11:41:26.469Z,8.83
2022-08-29T11:43:30.889Z,8.47
2022-08-29T11:46:05.083Z,6.73
2022-08-29T11:48:38.037Z,7.80
2022-08-29T11:51:40.145Z,7.03
2022-08-29T11:54:25.324Z,9.47
2022-08-29T11:57:01.077Z,5.57
2022-08-29T11:59:49.748Z,6.00
2022-08-29T12:02:22.898Z,5.23
2022-08-29T12:05:00.853Z,7.97
2022-08-29T12:07:42.458Z,9.43
2022-08-29T12:10:24.644Z,6.43
2022-08-29T12:12:53.351Z,8.90
2022-08-29T12:15:32.607Z,5.23
2022-08-29T12:18:03.715Z,6.03
2022-08-29T12:20:30.507Z,5.67
2022-08-29T12:23:07.683Z,6.07
2022-08-29T12:25:44.888Z,4.90
2022-08-29T12:28:17.564Z,6.07
2022-08-29T12:30:49.337Z,7.60
2022-08-29T12:33:46.882Z,10.37
2022-08-29T12:36:41.177Z,10.77
2022-08-29T12:39:57.729Z,4.97
2022-08-29T12:42:46.669Z,8.83
2022-08-29T12:45:18.336Z,6.47
2022-08-29T12:47:48.013Z,9.53
2022-08-29T12:50:18.679Z,6.40
2022-08-29T12:53:00.044Z,4.90
2022-08-29T12:55:39.864Z,5.60
2022-08-29T12:58:07.902Z,6.27
2022-08-29T13:00:35.094Z,7.93
2022-08-29T13:03:09.569Z,9.50
2022-08-29T13:05:42.237Z,8.97
2022-08-29T13:08:28.616Z,4.07
2022-08-29T13:11:00.680Z,6.93
2022-08-29T13:13:29.135Z,8.40
2022-08-29T13:16:01.767Z,8.43
2022-08-29T13:18:29.724Z,6.43
2022-08-29T13:21:21.539Z,3.90
2022-08-29T13:24:00.444Z,4.77
2022-08-29T13:26:29.227Z,5.27
2022-08-29T13:29:13.286Z,5.70
2022-08-29T13:31:40.138Z,7.97
2022-08-29T13:34:06.633Z,8.60
2022-08-29T13:36:49.290Z,8.83
2022-08-29T13:39:25.322Z,8.57
2022-08-29T13:41:58.599Z,6.00
2022-08-29T13:44:30.983Z,8.63
2022-08-29T13:47:01.397Z,5.17
2022-08-29T13:49:33.546Z,9.63
2022-08-29T13:52:00.931Z,6.57
2022-08-29T13:54:33.141Z,8.33
2022-08-29T13:57:03.257Z,8.30
2022-08-29T13:59:35.944Z,6.73
2022-08-29T14:02:11.210Z,7.63
2022-08-29T14:04:40.881Z,7.40
2022-08-29T14:07:18.061Z,7.00
2022-08-29T14:09:45.759Z,7.60
2022-08-29T14:12:14.234Z,9.37
2022-08-29T14:14:42.368Z,5.47
2022-08-29T14:17:09.583Z,4.43
2022-08-29T14:19:36.792Z,5.27
2022-08-29T14:22:03.909Z,4.00
2022-08-29T14:24:31.796Z,6.20
2022-08-29T14:27:01.585Z,7.03
2022-08-29T14:29:32.965Z,7.10
2022-08-29T14:32:03.123Z,6.47
2022-08-29T14:34:30.830Z,7.53
2022-08-29T14:37:00.676Z,5.23
2022-08-29T14:39:27.723Z,7.87
2022-08-29T14:41:54.837Z,4.87
2022-08-29T14:44:24.549Z,5.77
2022-08-29T14:46:51.068Z,4.87
2022-08-29T14:49:18.545Z,5.50
2022-08-29T14:51:45.614Z,8.10
2022-08-29T14:54:13.201Z,7.13
2022-08-29T14:56:49.584Z,7.47
2022-08-29T14:59:19.017Z,6.50
2022-08-29T15:01:49.932Z,5.50
2022-08-29T15:04:27.466Z,4.30
2022-08-29T15:07:06.154Z,6.07
2022-08-29T15:09:33.648Z,4.40
2022-08-29T15:12:00.184Z,3.57
2022-08-29T15:14:26.836Z,7.57
2022-08-29T15:16:53.677Z,5.57
2022-08-29T15:22:08.546Z,8.03
2022-08-29T15:24:35.107Z,5.87
2022-08-29T15:27:02.231Z,6.20
2022-08-29T15:29:29.222Z,5.27
2022-08-29T15:31:58.779Z,5.13
2022-08-29T15:34:26.477Z,8.00
2022-08-29T15:36:54.442Z,6.93
2022-08-29T15:39:21.743Z,8.00
2022-08-29T15:41:48.285Z,5.70
2022-08-29T15:44:15.296Z,6.03
2022-08-29T15:46:50.864Z,7.10
2022-08-29T15:49:18.574Z,5.67
2022-08-29T15:51:45.219Z,3.30
2022-08-29T15:54:12.790Z,4.37
2022-08-29T15:56:39.388Z,2.87
2022-08-29T15:59:07.972Z,4.23
2022-08-29T16:01:38.821Z,4.80
2022-08-29T16:04:09.350Z,4.10
2022-08-29T16:06:36.458Z,4.00
2022-08-29T16:09:03.993Z,5.97
2022-08-29T16:11:41.877Z,4.30
2022-08-29T16:16:58.370Z,4.10
2022-08-29T16:19:24.929Z,3.77
2022-08-29T16:21:51.549Z,2.73
2022-08-29T16:24:18.530Z,4.50
2022-08-29T16:26:45.904Z,4.30
2022-08-29T16:29:13.017Z,8.00
2022-08-29T16:31:40.033Z,2.90
2022-08-29T16:34:06.587Z,6.13
2022-08-29T16:36:33.173Z,4.63
2022-08-29T16:38:59.801Z,3.73
2022-08-29T16:41:27.912Z,6.20
2022-08-29T16:43:55.151Z,4.70
2022-08-29T16:46:25.700Z,3.17
2022-08-29T16:48:52.804Z,4.50
2022-08-29T16:51:22.219Z,4.37
2022-08-29T16:53:48.888Z,4.20
2022-08-29T16:56:16.589Z,4.73
2022-08-29T16:59:01.782Z,3.83
2022-08-29T17:01:49.311Z,3.63
2022-08-29T17:04:18.851Z,3.70
2022-08-29T17:06:48.872Z,4.93
2022-08-29T17:09:20.092Z,10.30
2022-08-29T17:11:47.527Z,4.30
2022-08-29T17:14:14.941Z,4.30
2022-08-29T17:16:43.415Z,7.03
2022-08-29T17:19:09.956Z,4.50
2022-08-29T17:21:36.568Z,6.53
2022-08-29T17:24:06.798Z,6.23
2022-08-29T17:26:35.035Z,6.60
2022-08-29T17:29:01.918Z,8.20
2022-08-29T17:31:30.019Z,25.27
2022-08-29T17:34:05.329Z,6.03
2022-08-29T17:36:33.391Z,3.77
2022-08-29T17:38:59.960Z,9.73
2022-08-29T17:41:27.558Z,7.30
2022-08-29T17:43:57.427Z,3.83
2022-08-29T17:46:24.305Z,8.83
2022-08-29T17:48:50.892Z,5.23
2022-08-29T17:51:17.639Z,10.67
2022-08-29T17:53:46.398Z,9.60
2022-08-29T17:56:21.243Z,5.30
2022-08-29T17:58:48.245Z,10.03
2022-08-29T18:01:16.921Z,4.13
2022-08-29T18:03:44.760Z,5.83
2022-08-29T18:06:14.483Z,7.10
2022-08-29T18:08:42.169Z,3.57
2022-08-29T18:11:15.680Z,8.97
2022-08-29T18:13:42.332Z,8.43
2022-08-29T18:16:10.539Z,7.67
2022-08-29T18:18:37.608Z,5.30
2022-08-29T18:21:04.485Z,6.97
2022-08-29T18:23:31.218Z,7.70
2022-08-29T18:25:59.387Z,5.43
2022-08-29T18:28:26.053Z,11.47
2022-08-29T18:30:53.123Z,8.83
2022-08-29T18:33:20.119Z,6.77
2022-08-29T18:35:47.632Z,8.37
2022-08-29T18:38:15.909Z,3.73
2022-08-29T18:40:42.584Z,7.27
2022-08-29T18:43:09.862Z,11.40
2022-08-29T18:45:37.596Z,13.73
2022-08-29T18:48:04.814Z,19.47
2022-08-29T18:50:34.263Z,13.27
2022-08-29T18:53:21.925Z,10.77
2022-08-29T18:55:50.485Z,10.67
2022-08-29T18:58:21.223Z,7.97
2022-08-29T19:00:48.448Z,9.67
2022-08-29T19:03:15.083Z,9.23
2022-08-29T19:05:46.181Z,11.67
2022-08-29T19:08:13.583Z,10.30
2022-08-29T19:10:40.191Z,8.03
2022-08-29T19:13:09.672Z,8.97
2022-08-29T19:15:41.290Z,7.60
2022-08-29T19:18:09.885Z,6.20
2022-08-29T19:20:55.179Z,6.33
2022-08-29T19:23:22.555Z,9.90
2022-08-29T19:25:49.266Z,11.73
2022-08-29T19:28:17.079Z,8.07
2022-08-29T19:30:43.997Z,10.00
2022-08-29T19:33:11.068Z,10.27
2022-08-29T19:35:38.846Z,7.47
2022-08-29T19:38:06.573Z,9.03
2022-08-29T19:40:38.947Z,11.13
2022-08-29T19:43:13.778Z,13.23
2022-08-29T19:45:42.556Z,11.33
2022-08-29T19:48:14.825Z,8.23
2022-08-29T19:50:43.417Z,8.70
2022-08-29T19:53:16.990Z,9.43
2022-08-29T19:55:53.546Z,10.03
2022-08-29T19:58:21.100Z,12.23
2022-08-29T20:00:48.033Z,7.47
2022-08-29T20:03:15.332Z,12.77
2022-08-29T20:05:42.026Z,9.33
2022-08-29T20:08:09.265Z,10.10
2022-08-29T20:10:36.711Z,10.67
2022-08-29T20:13:04.094Z,11.43
2022-08-29T20:15:31.025Z,12.20
2022-08-29T20:18:00.333Z,10.10
2022-08-29T20:20:36.580Z,13.83
2022-08-29T20:23:04.976Z,9.60
2022-08-29T20:25:32.731Z,8.83
2022-08-29T20:27:59.624Z,9.73
2022-08-29T20:30:28.347Z,7.87
2022-08-29T20:32:54.929Z,13.40
2022-08-29T20:35:40.768Z,9.37
2022-08-29T20:38:08.109Z,15.90
2022-08-29T20:40:46.938Z,7.63
2022-08-29T20:43:14.812Z,12.13
2022-08-29T20:45:42.408Z,13.50
2022-08-29T20:48:10.238Z,11.87
2022-08-29T20:50:36.975Z,8.77
2022-08-29T20:53:05.003Z,9.10
2022-08-29T20:55:31.677Z,7.93
2022-08-29T20:57:58.659Z,9.60
2022-08-29T21:00:25.179Z,9.03
2022-08-29T21:03:10.543Z,10.03
2022-08-29T21:05:47.040Z,10.80
2022-08-29T21:08:19.007Z,10.97
2022-08-29T21:10:46.385Z,10.37
2022-08-29T21:13:13.957Z,9.57
2022-08-29T21:15:41.611Z,10.60
2022-08-29T21:18:09.126Z,8.93
2022-08-29T21:20:37.264Z,10.00
2022-08-29T21:23:12.892Z,12.30
2022-08-29T21:25:44.570Z,14.73
2022-08-29T21:28:12.012Z,8.93
2022-08-29T21:30:45.490Z,6.37
2022-08-29T21:33:12.426Z,13.70
2022-08-29T21:35:40.506Z,12.43
2022-08-29T21:38:08.192Z,9.40
2022-08-29T21:40:35.326Z,16.13
2022-08-29T21:43:10.635Z,12.90
2022-08-29T21:45:39.840Z,9.50
2022-08-29T21:48:06.749Z,9.53
2022-08-29T21:50:33.532Z,17.97
2022-08-29T21:53:00.067Z,11.17
2022-08-29T21:55:26.721Z,14.60
2022-08-29T21:57:53.678Z,11.53
2022-08-29T22:00:22.633Z,10.20
2022-08-29T22:02:49.150Z,12.87
2022-08-29T22:05:15.805Z,11.37
2022-08-29T22:07:42.963Z,13.93
2022-08-29T22:10:17.689Z,12.43
2022-08-29T22:12:44.489Z,15.97
2022-08-29T22:15:32.032Z,12.07
2022-08-29T22:17:59.225Z,14.97
2022-08-29T22:20:25.824Z,15.20
2022-08-29T22:22:52.800Z,13.63
2022-08-29T22:25:19.789Z,11.20
2022-08-29T22:27:46.559Z,14.83
2022-08-29T22:30:13.656Z,15.43
2022-08-29T22:32:40.966Z,11.80
2022-08-29T22:35:09.359Z,15.67
2022-08-29T22:37:37.013Z,13.43
2022-08-29T22:40:13.473Z,12.57
2022-08-29T22:42:41.148Z,11.83
2022-08-29T22:45:08.913Z,10.60
2022-08-29T22:47:37.168Z,15.00
2022-08-29T22:50:06.601Z,15.13
2022-08-29T22:52:33.564Z,13.20
2022-08-29T22:55:00.296Z,16.03
2022-08-29T22:57:27.046Z,14.77
2022-08-29T22:59:53.510Z,14.27
2022-08-29T23:02:21.593Z,17.27
2022-08-29T23:04:49.603Z,15.77
2022-08-29T23:07:16.436Z,15.60
2022-08-29T23:09:43.872Z,15.67
2022-08-29T23:12:12.363Z,12.87
2022-08-29T23:14:40.645Z,14.93
2022-08-29T23:17:08.444Z,12.17
2022-08-29T23:19:35.638Z,15.40
2022-08-29T23:22:02.494Z,13.43
2022-08-29T23:24:29.942Z,22.80
2022-08-29T23:26:57.213Z,12.90
2022-08-29T23:29:24.036Z,15.23
2022-08-29T23:31:50.666Z,16.93
2022-08-29T23:34:17.767Z,18.83
2022-08-29T23:36:44.478Z,17.63
2022-08-29T23:39:11.166Z,18.40
2022-08-29T23:41:37.805Z,13.27
2022-08-29T23:44:04.525Z,16.60
2022-08-29T23:46:31.129Z,15.47
2022-08-29T23:48:59.349Z,17.90
2022-08-29T23:51:25.900Z,14.73
2022-08-29T23:53:52.731Z,21.40
2022-08-29T23:56:21.221Z,13.27
2022-08-29T23:58:48.126Z,17.13
